sensor_id;sensor_type;location;lat;lon;timestamp;P1;durP1;ratioP1;P2;durP2;ratioP2
69150;SDS011;56257;52.196;13.870;2022-08-30T00:00:49;3.00;;;1.42;;
69150;SDS011;56257;52.196;13.870;2022-08-30T00:03:29;3.60;;;1.70;;
69150;SDS011;56257;52.196;13.870;2022-08-30T00:06:03;3.50;;;1.70;;
69150;SDS011;56257;52.196;13.870;2022-08-30T00:08:32;3.17;;;1.60;;
69150;SDS011;56257;52.196;13.870;2022-08-30T00:11:00;3.72;;;1.85;;
69150;SDS011;56257;52.196;13.870;2022-08-30T00:13:28;3.05;;;1.33;;
69150;SDS011;56257;52.196;13.870;2022-08-30T00:15:55;3.83;;;1.90;;
69150;SDS011;56257;52.196;13.870;2022-08-30T00:18:22;3.17;;;1.50;;
69150;SDS011;56257;52.196;13.870;2022-08-30T00:20:50;3.22;;;1.35;;
69150;SDS011;56257;52.196;13.870;2022-08-30T00:23:17;3.97;;;1.27;;
69150;SDS011;56257;52.196;13.870;2022-08-30T00:25:44;3.47;;;1.38;;
69150;SDS011;56257;52.196;13.870;2022-08-30T00:28:12;4.40;;;1.50;;
69150;SDS011;56257;52.196;13.870;2022-08-30T00:30:39;2.90;;;1.30;;
69150;SDS011;56257;52.196;13.870;2022-08-30T00:33:07;3.17;;;1.35;;
69150;SDS011;56257;52.196;13.870;2022-08-30T00:35:34;3.95;;;1.23;;
69150;SDS011;56257;52.196;13.870;2022-08-30T00:38:00;3.05;;;1.30;;
69150;SDS011;56257;52.196;13.870;2022-08-30T00:40:28;3.00;;;1.40;;
69150;SDS011;56257;52.196;13.870;2022-08-30T00:42:56;2.92;;;1.30;;
69150;SDS011;56257;52.196;13.870;2022-08-30T00:45:33;3.10;;;1.35;;
69150;SDS011;56257;52.196;13.870;2022-08-30T00:48:00;3.10;;;1.58;;
69150;SDS011;56257;52.196;13.870;2022-08-30T00:50:28;3.00;;;1.40;;
69150;SDS011;56257;52.196;13.870;2022-08-30T00:52:59;3.10;;;1.40;;
69150;SDS011;56257;52.196;13.870;2022-08-30T00:55:26;3.10;;;1.55;;
69150;SDS011;56257;52.196;13.870;2022-08-30T00:57:55;4.10;;;1.45;;
69150;SDS011;56257;52.196;13.870;2022-08-30T01:00:27;3.20;;;1.40;;
69150;SDS011;56257;52.196;13.870;2022-08-30T01:02:54;3.25;;;1.45;;
69150;SDS011;56257;52.196;13.870;2022-08-30T01:05:21;3.10;;;1.20;;
69150;SDS011;56257;52.196;13.870;2022-08-30T01:07:49;3.33;;;1.42;;
69150;SDS011;56257;52.196;13.870;2022-08-30T01:10:16;2.90;;;1.20;;
69150;SDS011;56257;52.196;13.870;2022-08-30T01:12:43;3.20;;;1.20;;
69150;SDS011;56257;52.196;13.870;2022-08-30T01:15:10;3.38;;;1.48;;
69150;SDS011;56257;52.196;13.870;2022-08-30T01:17:41;3.33;;;1.53;;
69150;SDS011;56257;52.196;13.870;2022-08-30T01:20:10;3.20;;;1.63;;
69150;SDS011;56257;52.196;13.870;2022-08-30T01:25:17;5.25;;;1.70;;
69150;SDS011;56257;52.196;13.870;2022-08-30T01:27:52;4.43;;;1.65;;
69150;SDS011;56257;52.196;13.870;2022-08-30T01:30:27;3.53;;;1.50;;
69150;SDS011;56257;52.196;13.870;2022-08-30T01:32:56;3.20;;;1.73;;
69150;SDS011;56257;52.196;13.870;2022-08-30T01:35:25;4.22;;;1.90;;
69150;SDS011;56257;52.196;13.870;2022-08-30T01:37:54;3.35;;;1.70;;
69150;SDS011;56257;52.196;13.870;2022-08-30T01:40:21;3.60;;;1.80;;
69150;SDS011;56257;52.196;13.870;2022-08-30T01:42:47;3.57;;;1.50;;
69150;SDS011;56257;52.196;13.870;2022-08-30T01:45:15;3.60;;;1.90;;
69150;SDS011;56257;52.196;13.870;2022-08-30T01:47:42;4.78;;;1.95;;
69150;SDS011;56257;52.196;13.870;2022-08-30T01:50:09;4.03;;;1.90;;
69150;SDS011;56257;52.196;13.870;2022-08-30T01:52:37;3.95;;;1.70;;
69150;SDS011;56257;52.196;13.870;2022-08-30T01:55:05;3.50;;;1.67;;
69150;SDS011;56257;52.196;13.870;2022-08-30T01:57:33;3.25;;;1.70;;
69150;SDS011;56257;52.196;13.870;2022-08-30T02:00:00;4.47;;;1.98;;
69150;SDS011;56257;52.196;13.870;2022-08-30T02:02:27;3.83;;;1.90;;
69150;SDS011;56257;52.196;13.870;2022-08-30T02:04:55;4.22;;;1.50;;
69150;SDS011;56257;52.196;13.870;2022-08-30T02:07:23;3.53;;;1.50;;
69150;SDS011;56257;52.196;13.870;2022-08-30T02:09:51;3.72;;;1.90;;
69150;SDS011;56257;52.196;13.870;2022-08-30T02:12:18;3.10;;;1.30;;
69150;SDS011;56257;52.196;13.870;2022-08-30T02:14:45;3.63;;;1.70;;
69150;SDS011;56257;52.196;13.870;2022-08-30T02:17:12;4.32;;;1.60;;
69150;SDS011;56257;52.196;13.870;2022-08-30T02:19:39;3.47;;;1.70;;
69150;SDS011;56257;52.196;13.870;2022-08-30T02:22:06;4.07;;;1.60;;
69150;SDS011;56257;52.196;13.870;2022-08-30T02:24:33;3.50;;;1.53;;
69150;SDS011;56257;52.196;13.870;2022-08-30T02:27:00;3.75;;;1.40;;
69150;SDS011;56257;52.196;13.870;2022-08-30T02:29:27;3.40;;;1.35;;
69150;SDS011;56257;52.196;13.870;2022-08-30T02:31:54;3.20;;;1.38;;
69150;SDS011;56257;52.196;13.870;2022-08-30T02:34:21;4.28;;;1.45;;
69150;SDS011;56257;52.196;13.870;2022-08-30T02:36:48;3.03;;;1.30;;
69150;SDS011;56257;52.196;13.870;2022-08-30T02:39:15;3.00;;;1.40;;
69150;SDS011;56257;52.196;13.870;2022-08-30T02:41:41;3.10;;;1.25;;
69150;SDS011;56257;52.196;13.870;2022-08-30T02:44:08;4.03;;;1.58;;
69150;SDS011;56257;52.196;13.870;2022-08-30T02:46:36;3.35;;;1.50;;
69150;SDS011;56257;52.196;13.870;2022-08-30T02:49:03;3.80;;;1.67;;
69150;SDS011;56257;52.196;13.870;2022-08-30T02:51:50;4.22;;;1.52;;
69150;SDS011;56257;52.196;13.870;2022-08-30T02:54:17;3.03;;;1.40;;
69150;SDS011;56257;52.196;13.870;2022-08-30T02:56:46;3.00;;;1.30;;
69150;SDS011;56257;52.196;13.870;2022-08-30T02:59:14;3.70;;;1.60;;
69150;SDS011;56257;52.196;13.870;2022-08-30T03:01:41;3.30;;;1.50;;
69150;SDS011;56257;52.196;13.870;2022-08-30T03:04:08;4.55;;;1.75;;
69150;SDS011;56257;52.196;13.870;2022-08-30T03:06:35;3.97;;;1.70;;
69150;SDS011;56257;52.196;13.870;2022-08-30T03:09:02;3.50;;;1.90;;
69150;SDS011;56257;52.196;13.870;2022-08-30T03:11:29;3.10;;;1.40;;
69150;SDS011;56257;52.196;13.870;2022-08-30T03:13:57;3.10;;;1.50;;
69150;SDS011;56257;52.196;13.870;2022-08-30T03:16:24;3.42;;;1.88;;
69150;SDS011;56257;52.196;13.870;2022-08-30T03:18:50;3.15;;;1.58;;
69150;SDS011;56257;52.196;13.870;2022-08-30T03:21:17;3.08;;;1.35;;
69150;SDS011;56257;52.196;13.870;2022-08-30T03:23:44;3.47;;;1.70;;
69150;SDS011;56257;52.196;13.870;2022-08-30T03:26:11;3.50;;;1.70;;
69150;SDS011;56257;52.196;13.870;2022-08-30T03:28:40;4.38;;;1.95;;
69150;SDS011;56257;52.196;13.870;2022-08-30T03:31:07;4.15;;;1.70;;
69150;SDS011;56257;52.196;13.870;2022-08-30T03:33:35;3.45;;;1.83;;
69150;SDS011;56257;52.196;13.870;2022-08-30T03:36:02;4.20;;;1.40;;
69150;SDS011;56257;52.196;13.870;2022-08-30T03:38:29;3.60;;;1.33;;
69150;SDS011;56257;52.196;13.870;2022-08-30T03:40:56;4.20;;;1.20;;
69150;SDS011;56257;52.196;13.870;2022-08-30T03:43:23;4.07;;;1.40;;
69150;SDS011;56257;52.196;13.870;2022-08-30T03:45:50;3.25;;;1.50;;
69150;SDS011;56257;52.196;13.870;2022-08-30T03:48:17;2.97;;;1.40;;
69150;SDS011;56257;52.196;13.870;2022-08-30T03:50:44;3.87;;;1.50;;
69150;SDS011;56257;52.196;13.870;2022-08-30T03:53:11;4.70;;;1.40;;
69150;SDS011;56257;52.196;13.870;2022-08-30T03:55:37;4.13;;;1.67;;
69150;SDS011;56257;52.196;13.870;2022-08-30T03:58:04;3.80;;;1.50;;
69150;SDS011;56257;52.196;13.870;2022-08-30T04:00:31;3.72;;;1.40;;
69150;SDS011;56257;52.196;13.870;2022-08-30T04:02:57;3.17;;;1.37;;
69150;SDS011;56257;52.196;13.870;2022-08-30T04:05:24;4.35;;;1.20;;
69150;SDS011;56257;52.196;13.870;2022-08-30T04:07:52;3.60;;;1.50;;
69150;SDS011;56257;52.196;13.870;2022-08-30T04:10:19;4.05;;;1.50;;
69150;SDS011;56257;52.196;13.870;2022-08-30T04:12:47;3.40;;;1.50;;
69150;SDS011;56257;52.196;13.870;2022-08-30T04:15:15;3.30;;;1.47;;
69150;SDS011;56257;52.196;13.870;2022-08-30T04:17:42;4.05;;;1.60;;
69150;SDS011;56257;52.196;13.870;2022-08-30T04:20:09;3.50;;;1.70;;
69150;SDS011;56257;52.196;13.870;2022-08-30T04:22:36;3.22;;;1.67;;
69150;SDS011;56257;52.196;13.870;2022-08-30T04:25:04;3.95;;;1.40;;
69150;SDS011;56257;52.196;13.870;2022-08-30T04:27:31;4.20;;;1.77;;
69150;SDS011;56257;52.196;13.870;2022-08-30T04:29:58;4.72;;;2.22;;
69150;SDS011;56257;52.196;13.870;2022-08-30T04:32:25;4.25;;;2.03;;
69150;SDS011;56257;52.196;13.870;2022-08-30T04:34:58;5.63;;;2.10;;
69150;SDS011;56257;52.196;13.870;2022-08-30T04:37:25;4.60;;;2.22;;
69150;SDS011;56257;52.196;13.870;2022-08-30T04:39:55;4.33;;;2.20;;
69150;SDS011;56257;52.196;13.870;2022-08-30T04:42:26;4.93;;;2.47;;
69150;SDS011;56257;52.196;13.870;2022-08-30T04:44:57;5.53;;;2.50;;
69150;SDS011;56257;52.196;13.870;2022-08-30T04:47:25;4.07;;;2.08;;
69150;SDS011;56257;52.196;13.870;2022-08-30T04:49:52;5.03;;;2.30;;
69150;SDS011;56257;52.196;13.870;2022-08-30T04:52:18;5.43;;;2.10;;
69150;SDS011;56257;52.196;13.870;2022-08-30T04:54:45;4.90;;;2.33;;
69150;SDS011;56257;52.196;13.870;2022-08-30T04:57:12;4.93;;;2.22;;
69150;SDS011;56257;52.196;13.870;2022-08-30T04:59:39;4.90;;;2.55;;
69150;SDS011;56257;52.196;13.870;2022-08-30T05:02:05;4.60;;;2.33;;
69150;SDS011;56257;52.196;13.870;2022-08-30T05:04:32;5.00;;;2.30;;
69150;SDS011;56257;52.196;13.870;2022-08-30T05:06:59;4.53;;;2.53;;
69150;SDS011;56257;52.196;13.870;2022-08-30T05:09:26;4.65;;;2.50;;
69150;SDS011;56257;52.196;13.870;2022-08-30T05:11:53;4.78;;;2.70;;
69150;SDS011;56257;52.196;13.870;2022-08-30T05:14:20;5.28;;;2.58;;
69150;SDS011;56257;52.196;13.870;2022-08-30T05:16:46;5.60;;;2.70;;
69150;SDS011;56257;52.196;13.870;2022-08-30T05:19:13;5.85;;;2.50;;
69150;SDS011;56257;52.196;13.870;2022-08-30T05:21:40;6.10;;;2.58;;
69150;SDS011;56257;52.196;13.870;2022-08-30T05:24:06;4.93;;;2.60;;
69150;SDS011;56257;52.196;13.870;2022-08-30T05:26:33;7.78;;;3.00;;
69150;SDS011;56257;52.196;13.870;2022-08-30T05:29:03;5.50;;;2.77;;
69150;SDS011;56257;52.196;13.870;2022-08-30T05:31:31;6.18;;;3.10;;
69150;SDS011;56257;52.196;13.870;2022-08-30T05:34:00;5.68;;;2.75;;
69150;SDS011;56257;52.196;13.870;2022-08-30T05:36:27;7.32;;;3.67;;
69150;SDS011;56257;52.196;13.870;2022-08-30T05:38:55;7.15;;;3.85;;
69150;SDS011;56257;52.196;13.870;2022-08-30T05:41:23;6.90;;;3.40;;
69150;SDS011;56257;52.196;13.870;2022-08-30T05:43:55;7.95;;;3.70;;
69150;SDS011;56257;52.196;13.870;2022-08-30T05:46:25;7.07;;;3.70;;
69150;SDS011;56257;52.196;13.870;2022-08-30T05:48:55;6.93;;;3.28;;
69150;SDS011;56257;52.196;13.870;2022-08-30T05:51:22;7.40;;;3.83;;
69150;SDS011;56257;52.196;13.870;2022-08-30T05:53:51;7.40;;;4.13;;
69150;SDS011;56257;52.196;13.870;2022-08-30T05:56:20;8.23;;;4.18;;
69150;SDS011;56257;52.196;13.870;2022-08-30T05:58:50;7.85;;;3.95;;
69150;SDS011;56257;52.196;13.870;2022-08-30T06:01:18;7.65;;;4.00;;
69150;SDS011;56257;52.196;13.870;2022-08-30T06:03:46;7.72;;;3.78;;
69150;SDS011;56257;52.196;13.870;2022-08-30T06:06:13;7.27;;;3.80;;
69150;SDS011;56257;52.196;13.870;2022-08-30T06:08:41;8.57;;;4.30;;
69150;SDS011;56257;52.196;13.870;2022-08-30T06:11:11;7.70;;;4.00;;
69150;SDS011;56257;52.196;13.870;2022-08-30T06:13:40;7.68;;;4.03;;
69150;SDS011;56257;52.196;13.870;2022-08-30T06:16:10;7.45;;;4.30;;
69150;SDS011;56257;52.196;13.870;2022-08-30T06:18:37;7.50;;;3.73;;
69150;SDS011;56257;52.196;13.870;2022-08-30T06:21:04;7.35;;;4.03;;
69150;SDS011;56257;52.196;13.870;2022-08-30T06:23:31;7.93;;;4.45;;
69150;SDS011;56257;52.196;13.870;2022-08-30T06:26:05;7.97;;;4.55;;
69150;SDS011;56257;52.196;13.870;2022-08-30T06:28:33;8.20;;;4.25;;
69150;SDS011;56257;52.196;13.870;2022-08-30T06:30:59;7.23;;;4.17;;
69150;SDS011;56257;52.196;13.870;2022-08-30T06:33:26;8.18;;;4.38;;
69150;SDS011;56257;52.196;13.870;2022-08-30T06:35:53;7.53;;;4.18;;
69150;SDS011;56257;52.196;13.870;2022-08-30T06:38:24;8.00;;;4.43;;
69150;SDS011;56257;52.196;13.870;2022-08-30T06:40:51;8.15;;;4.68;;
69150;SDS011;56257;52.196;13.870;2022-08-30T06:43:17;7.47;;;4.03;;
69150;SDS011;56257;52.196;13.870;2022-08-30T06:45:44;8.13;;;4.20;;
69150;SDS011;56257;52.196;13.870;2022-08-30T06:48:10;7.65;;;4.55;;
69150;SDS011;56257;52.196;13.870;2022-08-30T06:50:37;8.15;;;4.35;;
69150;SDS011;56257;52.196;13.870;2022-08-30T06:53:10;8.23;;;4.63;;
69150;SDS011;56257;52.196;13.870;2022-08-30T06:55:40;8.10;;;4.70;;
69150;SDS011;56257;52.196;13.870;2022-08-30T06:58:07;7.68;;;4.57;;
69150;SDS011;56257;52.196;13.870;2022-08-30T07:00:34;7.78;;;4.38;;
69150;SDS011;56257;52.196;13.870;2022-08-30T07:03:04;7.65;;;4.28;;
69150;SDS011;56257;52.196;13.870;2022-08-30T07:05:31;7.55;;;4.55;;
69150;SDS011;56257;52.196;13.870;2022-08-30T07:07:58;8.20;;;4.57;;
69150;SDS011;56257;52.196;13.870;2022-08-30T07:10:24;9.43;;;5.03;;
69150;SDS011;56257;52.196;13.870;2022-08-30T07:12:51;8.23;;;4.85;;
69150;SDS011;56257;52.196;13.870;2022-08-30T07:15:18;7.95;;;4.22;;
69150;SDS011;56257;52.196;13.870;2022-08-30T07:17:48;8.35;;;4.43;;
69150;SDS011;56257;52.196;13.870;2022-08-30T07:20:36;8.83;;;5.03;;
69150;SDS011;56257;52.196;13.870;2022-08-30T07:23:06;7.95;;;4.65;;
69150;SDS011;56257;52.196;13.870;2022-08-30T07:25:34;8.48;;;5.03;;
69150;SDS011;56257;52.196;13.870;2022-08-30T07:28:05;8.25;;;4.63;;
69150;SDS011;56257;52.196;13.870;2022-08-30T07:30:32;9.15;;;5.18;;
69150;SDS011;56257;52.196;13.870;2022-08-30T07:32:59;8.50;;;4.77;;
69150;SDS011;56257;52.196;13.870;2022-08-30T07:35:26;8.98;;;5.00;;
69150;SDS011;56257;52.196;13.870;2022-08-30T07:37:53;9.20;;;5.18;;
69150;SDS011;56257;52.196;13.870;2022-08-30T07:40:20;8.85;;;5.28;;
69150;SDS011;56257;52.196;13.870;2022-08-30T07:42:47;9.55;;;5.75;;
69150;SDS011;56257;52.196;13.870;2022-08-30T07:45:13;7.97;;;4.53;;
69150;SDS011;56257;52.196;13.870;2022-08-30T07:47:40;8.90;;;5.32;;
69150;SDS011;56257;52.196;13.870;2022-08-30T07:50:07;9.55;;;6.10;;
69150;SDS011;56257;52.196;13.870;2022-08-30T07:52:34;9.50;;;5.40;;
69150;SDS011;56257;52.196;13.870;2022-08-30T07:55:06;8.80;;;5.32;;
69150;SDS011;56257;52.196;13.870;2022-08-30T07:57:33;8.87;;;5.30;;
69150;SDS011;56257;52.196;13.870;2022-08-30T07:59:59;9.13;;;5.10;;
69150;SDS011;56257;52.196;13.870;2022-08-30T08:02:26;9.25;;;4.90;;
69150;SDS011;56257;52.196;13.870;2022-08-30T08:04:53;8.65;;;5.10;;
69150;SDS011;56257;52.196;13.870;2022-08-30T08:07:20;9.40;;;5.07;;
69150;SDS011;56257;52.196;13.870;2022-08-30T08:09:47;8.93;;;5.20;;
69150;SDS011;56257;52.196;13.870;2022-08-30T08:12:14;9.40;;;5.65;;
69150;SDS011;56257;52.196;13.870;2022-08-30T08:14:41;8.77;;;5.38;;
69150;SDS011;56257;52.196;13.870;2022-08-30T08:17:08;9.18;;;5.57;;
69150;SDS011;56257;52.196;13.870;2022-08-30T08:19:35;8.27;;;4.95;;
69150;SDS011;56257;52.196;13.870;2022-08-30T08:22:01;8.73;;;4.80;;
69150;SDS011;56257;52.196;13.870;2022-08-30T08:24:45;9.57;;;5.55;;
69150;SDS011;56257;52.196;13.870;2022-08-30T08:27:12;9.73;;;5.30;;
69150;SDS011;56257;52.196;13.870;2022-08-30T08:29:39;8.85;;;5.30;;
69150;SDS011;56257;52.196;13.870;2022-08-30T08:32:05;9.20;;;5.30;;
69150;SDS011;56257;52.196;13.870;2022-08-30T08:34:33;9.60;;;5.77;;
69150;SDS011;56257;52.196;13.870;2022-08-30T08:37:00;10.18;;;5.43;;
69150;SDS011;56257;52.196;13.870;2022-08-30T08:39:27;9.95;;;5.50;;
69150;SDS011;56257;52.196;13.870;2022-08-30T08:44:48;10.40;;;5.75;;
69150;SDS011;56257;52.196;13.870;2022-08-30T08:49:54;9.63;;;5.45;;
69150;SDS011;56257;52.196;13.870;2022-08-30T08:52:23;10.68;;;6.38;;
69150;SDS011;56257;52.196;13.870;2022-08-30T08:55:14;10.50;;;6.05;;
69150;SDS011;56257;52.196;13.870;2022-08-30T08:57:44;9.85;;;6.18;;
69150;SDS011;56257;52.196;13.870;2022-08-30T09:00:12;10.57;;;6.43;;
69150;SDS011;56257;52.196;13.870;2022-08-30T09:02:44;10.55;;;5.72;;
69150;SDS011;56257;52.196;13.870;2022-08-30T09:05:13;10.10;;;5.88;;
69150;SDS011;56257;52.196;13.870;2022-08-30T09:07:46;10.10;;;5.80;;
69150;SDS011;56257;52.196;13.870;2022-08-30T09:10:14;10.13;;;5.95;;
69150;SDS011;56257;52.196;13.870;2022-08-30T09:12:55;10.40;;;6.60;;
69150;SDS011;56257;52.196;13.870;2022-08-30T09:15:42;10.30;;;6.40;;
69150;SDS011;56257;52.196;13.870;2022-08-30T09:18:09;12.20;;;6.53;;
69150;SDS011;56257;52.196;13.870;2022-08-30T09:20:46;12.25;;;7.40;;
69150;SDS011;56257;52.196;13.870;2022-08-30T09:25:52;11.33;;;6.80;;
69150;SDS011;56257;52.196;13.870;2022-08-30T09:31:27;9.85;;;5.88;;
69150;SDS011;56257;52.196;13.870;2022-08-30T09:34:38;11.95;;;6.95;;
69150;SDS011;56257;52.196;13.870;2022-08-30T09:36:45;11.15;;;6.60;;
69150;SDS011;56257;52.196;13.870;2022-08-30T09:39:25;11.33;;;6.70;;
69150;SDS011;56257;52.196;13.870;2022-08-30T09:42:10;10.10;;;6.45;;
69150;SDS011;56257;52.196;13.870;2022-08-30T09:44:38;10.15;;;6.50;;
69150;SDS011;56257;52.196;13.870;2022-08-30T09:47:05;10.77;;;6.00;;
69150;SDS011;56257;52.196;13.870;2022-08-30T09:50:11;10.00;;;5.95;;
69150;SDS011;56257;52.196;13.870;2022-08-30T09:55:20;11.07;;;6.28;;
69150;SDS011;56257;52.196;13.870;2022-08-30T09:58:11;11.50;;;6.15;;
69150;SDS011;56257;52.196;13.870;2022-08-30T10:01:03;9.70;;;5.72;;
69150;SDS011;56257;52.196;13.870;2022-08-30T10:06:42;9.57;;;6.00;;
69150;SDS011;56257;52.196;13.870;2022-08-30T10:17:43;10.10;;;6.15;;
69150;SDS011;56257;52.196;13.870;2022-08-30T10:22:41;9.75;;;5.55;;
69150;SDS011;56257;52.196;13.870;2022-08-30T10:25:16;9.90;;;5.72;;
69150;SDS011;56257;52.196;13.870;2022-08-30T10:27:49;7.93;;;4.82;;
69150;SDS011;56257;52.196;13.870;2022-08-30T10:30:21;9.93;;;5.40;;
69150;SDS011;56257;52.196;13.870;2022-08-30T10:32:50;10.97;;;5.43;;
69150;SDS011;56257;52.196;13.870;2022-08-30T10:35:24;9.30;;;5.38;;
69150;SDS011;56257;52.196;13.870;2022-08-30T10:38:02;8.75;;;4.72;;
69150;SDS011;56257;52.196;13.870;2022-08-30T10:40:38;9.05;;;5.20;;
69150;SDS011;56257;52.196;13.870;2022-08-30T10:49:37;7.95;;;4.72;;
69150;SDS011;56257;52.196;13.870;2022-08-30T10:52:16;7.28;;;4.00;;
69150;SDS011;56257;52.196;13.870;2022-08-30T10:54:56;8.77;;;4.47;;
69150;SDS011;56257;52.196;13.870;2022-08-30T10:57:25;8.20;;;4.38;;
69150;SDS011;56257;52.196;13.870;2022-08-30T10:59:59;6.90;;;4.07;;
69150;SDS011;56257;52.196;13.870;2022-08-30T11:06:07;7.65;;;3.90;;
69150;SDS011;56257;52.196;13.870;2022-08-30T11:14:05;5.70;;;3.57;;
69150;SDS011;56257;52.196;13.870;2022-08-30T11:16:36;8.80;;;3.47;;
69150;SDS011;56257;52.196;13.870;2022-08-30T11:19:22;6.25;;;3.40;;
69150;SDS011;56257;52.196;13.870;2022-08-30T11:22:13;6.60;;;3.70;;
69150;SDS011;56257;52.196;13.870;2022-08-30T11:27:42;5.60;;;3.33;;
69150;SDS011;56257;52.196;13.870;2022-08-30T11:33:03;5.82;;;3.20;;
69150;SDS011;56257;52.196;13.870;2022-08-30T11:35:36;5.50;;;3.17;;
69150;SDS011;56257;52.196;13.870;2022-08-30T11:38:17;5.10;;;2.45;;
69150;SDS011;56257;52.196;13.870;2022-08-30T11:48:54;6.45;;;2.83;;
69150;SDS011;56257;52.196;13.870;2022-08-30T11:59:16;5.93;;;2.30;;
69150;SDS011;56257;52.196;13.870;2022-08-30T12:01:51;4.75;;;2.22;;
69150;SDS011;56257;52.196;13.870;2022-08-30T12:06:49;3.80;;;2.03;;
69150;SDS011;56257;52.196;13.870;2022-08-30T12:11:53;4.88;;;1.80;;
69150;SDS011;56257;52.196;13.870;2022-08-30T12:17:22;3.53;;;1.65;;
69150;SDS011;56257;52.196;13.870;2022-08-30T12:22:48;3.13;;;1.35;;
69150;SDS011;56257;52.196;13.870;2022-08-30T12:25:23;3.50;;;1.30;;
69150;SDS011;56257;52.196;13.870;2022-08-30T12:28:07;3.28;;;1.52;;
69150;SDS011;56257;52.196;13.870;2022-08-30T12:30:35;3.17;;;1.30;;
69150;SDS011;56257;52.196;13.870;2022-08-30T12:33:08;3.10;;;0.93;;
69150;SDS011;56257;52.196;13.870;2022-08-30T12:35:37;3.20;;;1.23;;
69150;SDS011;56257;52.196;13.870;2022-08-30T12:38:11;4.03;;;1.25;;
69150;SDS011;56257;52.196;13.870;2022-08-30T12:41:01;3.30;;;1.10;;
69150;SDS011;56257;52.196;13.870;2022-08-30T12:43:38;3.30;;;1.20;;
69150;SDS011;56257;52.196;13.870;2022-08-30T12:46:08;3.10;;;0.90;;
69150;SDS011;56257;52.196;13.870;2022-08-30T12:48:40;4.65;;;1.58;;
69150;SDS011;56257;52.196;13.870;2022-08-30T12:51:07;2.95;;;1.00;;
69150;SDS011;56257;52.196;13.870;2022-08-30T12:53:50;3.40;;;1.20;;
69150;SDS011;56257;52.196;13.870;2022-08-30T12:56:17;3.20;;;1.20;;
69150;SDS011;56257;52.196;13.870;2022-08-30T12:59:03;3.03;;;1.20;;
69150;SDS011;56257;52.196;13.870;2022-08-30T13:01:34;3.75;;;1.27;;
69150;SDS011;56257;52.196;13.870;2022-08-30T13:04:14;3.22;;;1.10;;
69150;SDS011;56257;52.196;13.870;2022-08-30T13:11:58;4.07;;;0.87;;
69150;SDS011;56257;52.196;13.870;2022-08-30T13:14:31;2.90;;;0.95;;
69150;SDS011;56257;52.196;13.870;2022-08-30T13:19:41;2.80;;;1.10;;
69150;SDS011;56257;52.196;13.870;2022-08-30T13:24:55;3.67;;;1.10;;
69150;SDS011;56257;52.196;13.870;2022-08-30T13:27:22;2.67;;;0.70;;
69150;SDS011;56257;52.196;13.870;2022-08-30T13:29:50;3.00;;;0.80;;
69150;SDS011;56257;52.196;13.870;2022-08-30T13:32:17;2.72;;;0.80;;
69150;SDS011;56257;52.196;13.870;2022-08-30T13:34:44;2.60;;;0.70;;
69150;SDS011;56257;52.196;13.870;2022-08-30T13:37:16;3.37;;;0.97;;
69150;SDS011;56257;52.196;13.870;2022-08-30T13:40:08;3.85;;;0.80;;
69150;SDS011;56257;52.196;13.870;2022-08-30T13:42:36;3.13;;;1.00;;
69150;SDS011;56257;52.196;13.870;2022-08-30T13:45:03;3.30;;;0.93;;
69150;SDS011;56257;52.196;13.870;2022-08-30T13:47:50;2.58;;;0.70;;
69150;SDS011;56257;52.196;13.870;2022-08-30T13:50:17;2.83;;;1.00;;
69150;SDS011;56257;52.196;13.870;2022-08-30T13:52:46;5.32;;;1.10;;
69150;SDS011;56257;52.196;13.870;2022-08-30T13:55:13;4.25;;;0.80;;
69150;SDS011;56257;52.196;13.870;2022-08-30T13:57:40;2.72;;;0.80;;
69150;SDS011;56257;52.196;13.870;2022-08-30T14:00:23;3.47;;;0.80;;
69150;SDS011;56257;52.196;13.870;2022-08-30T14:02:51;2.63;;;1.03;;
69150;SDS011;56257;52.196;13.870;2022-08-30T14:05:27;3.00;;;0.85;;
69150;SDS011;56257;52.196;13.870;2022-08-30T14:08:19;2.83;;;0.73;;
69150;SDS011;56257;52.196;13.870;2022-08-30T14:11:08;2.97;;;1.00;;
69150;SDS011;56257;52.196;13.870;2022-08-30T14:13:41;5.05;;;1.08;;
69150;SDS011;56257;52.196;13.870;2022-08-30T14:16:31;5.23;;;1.20;;
69150;SDS011;56257;52.196;13.870;2022-08-30T14:18:58;3.78;;;0.95;;
69150;SDS011;56257;52.196;13.870;2022-08-30T14:21:26;3.17;;;0.80;;
69150;SDS011;56257;52.196;13.870;2022-08-30T14:23:53;4.85;;;1.23;;
69150;SDS011;56257;52.196;13.870;2022-08-30T14:26:31;2.80;;;0.80;;
69150;SDS011;56257;52.196;13.870;2022-08-30T14:29:04;3.27;;;0.90;;
69150;SDS011;56257;52.196;13.870;2022-08-30T14:31:34;3.10;;;0.70;;
69150;SDS011;56257;52.196;13.870;2022-08-30T14:34:03;2.63;;;0.70;;
69150;SDS011;56257;52.196;13.870;2022-08-30T14:36:31;3.10;;;0.90;;
69150;SDS011;56257;52.196;13.870;2022-08-30T14:38:59;3.58;;;0.80;;
69150;SDS011;56257;52.196;13.870;2022-08-30T14:41:26;3.60;;;0.80;;
69150;SDS011;56257;52.196;13.870;2022-08-30T14:43:53;2.45;;;0.70;;
69150;SDS011;56257;52.196;13.870;2022-08-30T14:46:20;3.38;;;0.98;;
69150;SDS011;56257;52.196;13.870;2022-08-30T14:48:51;3.22;;;0.93;;
69150;SDS011;56257;52.196;13.870;2022-08-30T14:51:19;4.25;;;0.70;;
69150;SDS011;56257;52.196;13.870;2022-08-30T14:53:49;3.00;;;0.73;;
69150;SDS011;56257;52.196;13.870;2022-08-30T14:56:18;4.72;;;0.65;;
69150;SDS011;56257;52.196;13.870;2022-08-30T14:58:48;4.05;;;0.70;;
69150;SDS011;56257;52.196;13.870;2022-08-30T15:01:16;3.65;;;1.00;;
69150;SDS011;56257;52.196;13.870;2022-08-30T15:03:44;3.88;;;0.80;;
69150;SDS011;56257;52.196;13.870;2022-08-30T15:06:12;3.37;;;0.80;;
69150;SDS011;56257;52.196;13.870;2022-08-30T15:08:38;5.15;;;1.48;;
69150;SDS011;56257;52.196;13.870;2022-08-30T15:11:07;2.75;;;1.00;;
69150;SDS011;56257;52.196;13.870;2022-08-30T15:13:38;3.55;;;1.20;;
69150;SDS011;56257;52.196;13.870;2022-08-30T15:16:11;3.58;;;1.02;;
69150;SDS011;56257;52.196;13.870;2022-08-30T15:18:40;2.90;;;1.00;;
69150;SDS011;56257;52.196;13.870;2022-08-30T15:21:07;2.97;;;1.10;;
69150;SDS011;56257;52.196;13.870;2022-08-30T15:23:34;3.63;;;1.23;;
69150;SDS011;56257;52.196;13.870;2022-08-30T15:26:02;3.10;;;1.10;;
69150;SDS011;56257;52.196;13.870;2022-08-30T15:28:29;2.53;;;0.90;;
69150;SDS011;56257;52.196;13.870;2022-08-30T15:30:56;3.00;;;1.10;;
69150;SDS011;56257;52.196;13.870;2022-08-30T15:33:23;5.53;;;1.40;;
69150;SDS011;56257;52.196;13.870;2022-08-30T15:35:50;3.90;;;1.70;;
69150;SDS011;56257;52.196;13.870;2022-08-30T15:38:17;3.22;;;1.50;;
69150;SDS011;56257;52.196;13.870;2022-08-30T15:40:47;3.60;;;1.60;;
69150;SDS011;56257;52.196;13.870;2022-08-30T15:43:15;4.73;;;1.40;;
69150;SDS011;56257;52.196;13.870;2022-08-30T15:45:42;3.42;;;1.60;;
69150;SDS011;56257;52.196;13.870;2022-08-30T15:48:09;3.70;;;1.40;;
69150;SDS011;56257;52.196;13.870;2022-08-30T15:50:36;4.72;;;1.60;;
69150;SDS011;56257;52.196;13.870;2022-08-30T15:53:05;3.38;;;1.52;;
69150;SDS011;56257;52.196;13.870;2022-08-30T15:55:32;3.20;;;1.60;;
69150;SDS011;56257;52.196;13.870;2022-08-30T15:57:59;5.25;;;1.70;;
69150;SDS011;56257;52.196;13.870;2022-08-30T16:00:26;3.63;;;1.60;;
69150;SDS011;56257;52.196;13.870;2022-08-30T16:02:52;4.13;;;1.75;;
69150;SDS011;56257;52.196;13.870;2022-08-30T16:05:22;3.70;;;1.55;;
69150;SDS011;56257;52.196;13.870;2022-08-30T16:07:50;5.00;;;1.80;;
69150;SDS011;56257;52.196;13.870;2022-08-30T16:10:17;3.88;;;1.80;;
69150;SDS011;56257;52.196;13.870;2022-08-30T16:12:44;3.92;;;1.50;;
69150;SDS011;56257;52.196;13.870;2022-08-30T16:15:11;3.75;;;1.83;;
69150;SDS011;56257;52.196;13.870;2022-08-30T16:17:38;3.55;;;1.50;;